Time;durP1;ratioP1;P1;durP2;ratioP2;P2;SDS_P1;SDS_P2;PMS_P1;PMS_P2;Temp;Humidity;BMP_temperature;BMP_pressure;BME280_temperature;BME280_humidity;BME280_pressure;Samples;Min_cycle;Max_cycle;Signal;HPM_P1;HPM_P2
2022/04/17 00:02:22;;;;;;;129.27;58.47;;;;;;;;;;5024923;28;20030;-76
2022/04/17 00:04:48;;;;;;;126.68;57.40;;;;;;;;;;5027458;28;20010;-78
2022/04/17 00:07:14;;;;;;;114.65;54.03;;;;;;;;;;5036026;28;20032;-79
2022/04/17 00:09:40;;;;;;;111.43;53.80;;;;;;;;;;5036986;28;20018;-79
2022/04/17 00:12:06;;;;;;;114.65;54.25;;;;;;;;;;5036982;28;20038;-77
2022/04/17 00:14:32;;;;;;;119.97;55.67;;;;;;;;;;5036467;28;20065;-78
2022/04/17 00:16:58;;;;;;;122.47;57.80;;;;;;;;;;5036849;28;20029;-73
2022/04/17 00:19:24;;;;;;;114.00;56.22;;;;;;;;;;5036761;28;20018;-77
2022/04/17 00:21:50;;;;;;;110.57;55.03;;;;;;;;;;5035878;28;20049;-75
2022/04/17 00:24:16;;;;;;;118.75;57.88;;;;;;;;;;5036328;28;20010;-75
2022/04/17 00:26:42;;;;;;;107.95;55.03;;;;;;;;;;5036626;28;20026;-75
2022/04/17 00:29:08;;;;;;;118.30;57.72;;;;;;;;;;5027061;28;20137;-77
2022/04/17 00:31:34;;;;;;;113.28;54.42;;;;;;;;;;5015837;28;20022;-79
2022/04/17 00:34:00;;;;;;;109.68;54.40;;;;;;;;;;5027404;28;20026;-76
2022/04/17 00:36:26;;;;;;;109.00;50.15;;;;;;;;;;5022798;28;20572;-76
2022/04/17 00:38:52;;;;;;;100.28;47.47;;;;;;;;;;5024404;28;20454;-76
2022/04/17 00:41:18;;;;;;;105.65;50.75;;;;;;;;;;5028695;28;20041;-77
2022/04/17 00:43:46;;;;;;;100.75;52.80;;;;;;;;;;5024181;28;20403;-77
2022/04/17 00:46:12;;;;;;;95.88;51.45;;;;;;;;;;5014411;28;20021;-78
2022/04/17 00:48:38;;;;;;;96.72;50.00;;;;;;;;;;5015114;28;20025;-78
2022/04/17 00:51:04;;;;;;;99.43;48.55;;;;;;;;;;5014591;28;20415;-78
2022/04/17 00:53:30;;;;;;;91.93;46.22;;;;;;;;;;5014800;28;20507;-76
2022/04/17 00:55:56;;;;;;;78.38;41.83;;;;;;;;;;5025796;28;20037;-77
2022/04/17 00:58:22;;;;;;;81.78;43.35;;;8.80;94.60;;;;;;5014529;28;20037;-77
2022/04/17 01:00:48;;;;;;;87.05;45.63;;;7.50;99.90;;;;;;5013368;28;20022;-77
2022/04/17 01:05:54;;;;;;;101.35;49.65;;;7.30;99.90;;;;;;5071227;28;20375;-76
2022/04/17 01:08:20;;;;;;;90.03;49.08;;;7.30;99.90;;;;;;5073425;28;20104;-79
2022/04/17 01:10:46;;;;;;;88.00;47.83;;;7.20;99.90;;;;;;5075715;28;20489;-76
2022/04/17 01:13:12;;;;;;;94.20;48.67;;;7.10;99.90;;;;;;5073956;28;20035;-77
2022/04/17 01:15:37;;;;;;;87.78;46.17;;;7.10;99.90;;;;;;5074704;28;20058;-78
2022/04/17 01:18:06;;;;;;;82.35;40.95;;;7.00;99.90;;;;;;5075090;28;20017;-77
2022/04/17 01:20:32;;;;;;;74.72;37.50;;;6.90;99.90;;;;;;5068936;28;20023;-77
2022/04/17 01:28:44;;;;;;;78.47;38.83;;;7.00;99.90;;;;;;5047950;28;20156;-77
2022/04/17 01:31:09;;;;;;;98.90;43.13;;;7.00;99.90;;;;;;5065502;28;20029;-77
2022/04/17 01:33:34;;;;;;;113.00;46.28;;;7.00;99.90;;;;;;5069710;28;20381;-76
2022/04/17 01:36:00;;;;;;;107.15;47.70;;;7.00;99.90;;;;;;5069671;28;20025;-77
2022/04/17 01:38:25;;;;;;;97.28;42.88;;;7.10;99.90;;;;;;5073362;28;20025;-77
2022/04/17 01:40:51;;;;;;;88.90;38.58;;;7.10;99.90;;;;;;5076038;28;20044;-77
2022/04/17 01:43:16;;;;;;;83.90;36.72;;;7.10;99.90;;;;;;5075251;28;20028;-77
2022/04/17 01:45:42;;;;;;;76.65;33.97;;;7.20;99.90;;;;;;5069600;28;20108;-76
2022/04/17 01:48:08;;;;;;;71.93;33.17;;;7.20;99.90;;;;;;5069099;28;20440;-77
2022/04/17 01:50:33;;;;;;;63.83;31.23;;;7.20;99.90;;;;;;5067699;28;20512;-77
2022/04/17 01:53:00;;;;;;;65.43;31.00;;;7.20;99.90;;;;;;5068924;28;20213;-76
2022/04/17 01:55:27;;;;;;;65.82;29.83;;;7.20;99.90;;;;;;5066610;28;20111;-76
2022/04/17 01:57:53;;;;;;;65.35;30.35;;;7.20;99.90;;;;;;5068352;28;20039;-76
2022/04/17 02:00:18;;;;;;;67.20;27.38;;;7.30;99.90;;;;;;5068497;28;20032;-77
2022/04/17 02:02:44;;;;;;;58.42;27.25;;;7.30;99.90;;;;;;5068139;28;20033;-77
2022/04/17 02:05:09;;;;;;;56.42;27.80;;;7.30;99.90;;;;;;5068101;28;20040;-76
2022/04/17 02:07:36;;;;;;;53.95;25.58;;;7.30;99.90;;;;;;5067977;28;20129;-76
2022/04/17 02:10:06;;;;;;;56.08;26.75;;;7.30;99.90;;;;;;5070349;28;20074;-77
2022/04/17 02:12:33;;;;;;;58.00;26.98;;;7.30;99.90;;;;;;5072358;28;20084;-77
2022/04/17 02:15:00;;;;;;;55.72;26.02;;;7.30;99.90;;;;;;5069088;28;20025;-77
2022/04/17 02:17:25;;;;;;;54.55;25.95;;;7.30;99.90;;;;;;5058773;28;20028;-76
2022/04/17 02:19:51;;;;;;;55.28;27.38;;;7.30;99.90;;;;;;5059114;28;20025;-78
2022/04/17 02:22:17;;;;;;;55.28;26.10;;;7.30;99.90;;;;;;5055191;28;20040;-77
2022/04/17 02:24:42;;;;;;;57.40;27.52;;;7.30;99.90;;;;;;5054403;28;20033;-75
2022/04/17 02:27:08;;;;;;;65.07;27.98;;;7.20;99.90;;;;;;5053039;28;20028;-76
2022/04/17 02:29:33;;;;;;;60.88;28.23;;;7.20;99.90;;;;;;5054603;28;20029;-76
2022/04/17 02:31:59;;;;;;;60.30;28.40;;;7.10;99.90;;;;;;5054612;28;20025;-75
2022/04/17 02:34:24;;;;;;;65.05;29.73;;;7.10;99.90;;;;;;5055176;28;20504;-77
2022/04/17 02:36:50;;;;;;;66.00;31.42;;;7.10;99.90;;;;;;5054720;28;20098;-78
2022/04/17 02:39:15;;;;;;;80.53;34.47;;;7.00;99.90;;;;;;5053162;28;20025;-77
2022/04/17 02:41:41;;;;;;;84.15;34.33;;;7.00;99.90;;;;;;5055395;28;20064;-75
2022/04/17 02:44:06;;;;;;;85.55;36.70;;;7.00;99.90;;;;;;5054166;28;20029;-76
2022/04/17 02:49:16;;;;;;;85.93;37.10;;;6.90;99.90;;;;;;5054674;28;20055;-75
2022/04/17 02:51:41;;;;;;;78.13;35.55;;;6.90;99.90;;;;;;5053543;28;20259;-77
2022/04/17 02:54:07;;;;;;;74.75;33.25;;;6.80;99.90;;;;;;5052874;28;20378;-77
2022/04/17 02:56:32;;;;;;;76.45;34.20;;;6.80;99.90;;;;;;5054042;28;20037;-76
2022/04/17 02:58:58;;;;;;;83.07;33.08;;;6.70;99.90;;;;;;5054930;28;20021;-75
2022/04/17 03:06:53;;;;;;;66.38;32.03;;;6.60;99.90;;;;;;5055758;28;20040;-77
2022/04/17 03:09:18;;;;;;;64.45;31.73;;;6.60;99.90;;;;;;5054056;28;20021;-78
2022/04/17 03:11:44;;;;;;;67.30;31.67;;;6.50;99.90;;;;;;5054262;28;20017;-75
2022/04/17 03:14:10;;;;;;;65.20;31.27;;;6.50;99.90;;;;;;5053573;28;20040;-76
2022/04/17 03:16:36;;;;;;;68.65;32.08;;;6.50;99.90;;;;;;5053527;28;20050;-77
2022/04/17 03:19:01;;;;;;;67.97;31.98;;;6.40;99.90;;;;;;5054056;28;20620;-76
2022/04/17 03:21:27;;;;;;;64.32;31.67;;;6.40;99.90;;;;;;5053544;28;20493;-77
2022/04/17 03:23:52;;;;;;;63.55;30.73;;;6.30;99.90;;;;;;5053899;28;20385;-77
2022/04/17 03:26:18;;;;;;;74.47;31.85;;;6.30;99.90;;;;;;5056736;28;20048;-79
2022/04/17 03:28:43;;;;;;;61.05;30.35;;;6.20;99.90;;;;;;5072461;28;20033;-76
2022/04/17 03:31:09;;;;;;;66.65;31.65;;;6.10;99.90;;;;;;5064634;28;20035;-75
2022/04/17 03:33:34;;;;;;;66.55;31.30;;;6.10;99.90;;;;;;5053722;28;20051;-76
2022/04/17 03:36:00;;;;;;;65.50;32.00;;;6.00;99.90;;;;;;5051679;28;20029;-76
2022/04/17 03:38:25;;;;;;;69.38;33.22;;;5.90;99.90;;;;;;5053278;28;20025;-77
2022/04/17 03:40:51;;;;;;;64.35;31.75;;;5.80;99.90;;;;;;5053299;28;20083;-77
2022/04/17 03:43:17;;;;;;;66.03;31.23;;;5.80;99.90;;;;;;5053110;28;20435;-77
2022/04/17 03:45:46;;;;;;;64.95;32.67;;;5.80;99.90;;;;;;5052876;28;20158;-77
2022/04/17 03:48:13;;;;;;;63.38;31.90;;;5.80;99.90;;;;;;5053549;28;20021;-78
2022/04/17 03:50:38;;;;;;;63.70;32.78;;;5.70;99.90;;;;;;5052850;28;20056;-78
2022/04/17 03:53:04;;;;;;;65.30;33.55;;;5.70;99.90;;;;;;5053050;28;20017;-78
2022/04/17 03:55:29;;;;;;;61.38;31.27;;;5.70;99.90;;;;;;5051558;28;20021;-77
2022/04/17 03:57:55;;;;;;;65.55;33.20;;;5.60;99.90;;;;;;5051674;28;20029;-77
2022/04/17 04:00:20;;;;;;;64.18;33.40;;;5.60;99.90;;;;;;5052726;28;20025;-78
2022/04/17 04:02:51;;;;;;;64.60;33.17;;;5.50;99.90;;;;;;5052990;28;20029;-76
2022/04/17 04:05:18;;;;;;;67.22;33.25;;;5.50;99.90;;;;;;5052205;28;20044;-79
2022/04/17 04:07:44;;;;;;;67.10;32.65;;;5.50;99.90;;;;;;5052672;28;20028;-77
2022/04/17 04:10:10;;;;;;;67.50;32.50;;;5.40;99.90;;;;;;5052620;28;20029;-76
2022/04/17 04:12:37;;;;;;;60.42;31.55;;;5.40;99.90;;;;;;5052550;28;20021;-77
2022/04/17 04:15:03;;;;;;;66.88;32.22;;;5.40;99.90;;;;;;5052400;28;20029;-76
2022/04/17 04:17:29;;;;;;;62.22;32.33;;;5.40;99.90;;;;;;5050946;28;20031;-76
2022/04/17 04:19:54;;;;;;;59.88;31.27;;;5.40;99.90;;;;;;5052701;28;20108;-76
2022/04/17 04:22:21;;;;;;;60.30;31.63;;;5.40;99.90;;;;;;5052390;28;20124;-77
2022/04/17 04:24:47;;;;;;;66.10;33.60;;;5.30;99.90;;;;;;5051410;28;20401;-77
2022/04/17 04:29:56;;;;;;;58.40;30.63;;;5.30;99.90;;;;;;5053493;28;20035;-76
2022/04/17 04:32:22;;;;;;;58.33;30.20;;;5.20;99.90;;;;;;5059485;28;20017;-75
2022/04/17 04:34:48;;;;;;;56.25;30.60;;;5.20;99.90;;;;;;5067614;28;20089;-76
2022/04/17 04:37:14;;;;;;;59.95;29.52;;;5.20;99.90;;;;;;5072546;28;20025;-77
2022/04/17 04:39:40;;;;;;;62.58;31.02;;;5.20;99.90;;;;;;5076152;28;20017;-77
2022/04/17 04:42:05;;;;;;;54.25;30.35;;;5.20;99.90;;;;;;5076609;28;20056;-78
2022/04/17 04:44:31;;;;;;;64.07;31.35;;;5.20;99.90;;;;;;5069895;28;20086;-79
2022/04/17 04:46:56;;;;;;;62.47;31.02;;;5.20;99.90;;;;;;5074849;28;20025;-77
2022/04/17 04:49:31;;;;;;;58.13;29.55;;;5.30;99.90;;;;;;5068722;28;20037;-77
2022/04/17 04:52:01;;;;;;;57.47;30.35;;;5.30;99.90;;;;;;5076028;28;20282;-77
2022/04/17 04:54:27;;;;;;;61.10;29.98;;;5.40;99.90;;;;;;5060229;28;20082;-77
2022/04/17 04:56:53;;;;;;;56.15;29.50;;;5.40;99.90;;;;;;5057192;28;20028;-78
2022/04/17 04:59:20;;;;;;;60.80;30.55;;;5.40;99.90;;;;;;5057793;28;20025;-76
2022/04/17 05:01:46;;;;;;;69.50;30.83;;;5.50;99.90;;;;;;5057492;28;20033;-77
2022/04/17 05:04:11;;;;;;;57.90;30.20;;;5.40;99.90;;;;;;5055042;28;20029;-78
2022/04/17 05:06:37;;;;;;;62.10;30.83;;;5.40;99.90;;;;;;5057375;28;20367;-77
2022/04/17 05:09:03;;;;;;;61.38;29.90;;;5.40;99.90;;;;;;5054704;28;20431;-78
2022/04/17 05:11:28;;;;;;;64.60;30.40;;;5.40;99.90;;;;;;5052052;28;20017;-78
2022/04/17 05:13:53;;;;;;;63.55;30.15;;;5.40;99.90;;;;;;5051481;28;20025;-77
2022/04/17 05:16:19;;;;;;;58.10;30.17;;;5.40;99.90;;;;;;5059348;28;20069;-76
2022/04/17 05:18:45;;;;;;;61.65;31.50;;;5.40;99.90;;;;;;5057338;28;20036;-77
2022/04/17 05:21:11;;;;;;;65.30;30.17;;;5.50;99.90;;;;;;5056454;28;20017;-78
2022/04/17 05:23:37;;;;;;;67.50;30.05;;;5.50;99.90;;;;;;5052106;28;20398;-77
2022/04/17 05:26:03;;;;;;;59.38;29.70;;;5.60;99.90;;;;;;5052105;28;20017;-79
2022/04/17 05:28:29;;;;;;;59.92;28.65;;;5.70;99.90;;;;;;5053314;28;20071;-77
2022/04/17 05:30:55;;;;;;;61.17;28.55;;;5.80;99.90;;;;;;5062446;28;20033;-78
2022/04/17 05:33:22;;;;;;;58.15;29.25;;;5.80;99.90;;;;;;5052182;28;20021;-77
2022/04/17 05:35:49;;;;;;;56.50;25.75;;;5.90;99.90;;;;;;5051636;28;20035;-79
2022/04/17 05:38:15;;;;;;;58.92;26.30;;;6.00;99.90;;;;;;5052984;28;20094;-77
2022/04/17 05:40:47;;;;;;;54.03;24.35;;;6.10;99.90;;;;;;5051569;28;20450;-77
2022/04/17 05:43:13;;;;;;;46.88;23.58;;;6.20;99.90;;;;;;5052088;28;20100;-78
2022/04/17 05:45:39;;;;;;;49.72;24.23;;;6.30;99.90;;;;;;5052544;28;20028;-76
2022/04/17 05:48:06;;;;;;;45.45;22.77;;;6.30;99.90;;;;;;5051783;28;20033;-77
2022/04/17 05:50:31;;;;;;;44.10;23.15;;;6.40;99.90;;;;;;5052492;28;20104;-77
2022/04/17 05:52:58;;;;;;;49.35;23.80;;;6.40;99.90;;;;;;5057638;28;20426;-76
2022/04/17 05:55:23;;;;;;;51.30;24.88;;;6.50;99.90;;;;;;5055736;28;20078;-78
2022/04/17 05:57:49;;;;;;;60.30;25.17;;;6.60;99.90;;;;;;5055435;28;20112;-77
2022/04/17 06:00:16;;;;;;;65.25;25.42;;;6.70;99.90;;;;;;5054354;28;20025;-77
2022/04/17 06:02:46;;;;;;;63.95;25.08;;;6.80;99.90;;;;;;5054835;28;20341;-77
2022/04/17 06:05:13;;;;;;;58.35;25.08;;;6.90;99.90;;;;;;5055237;28;20021;-77
2022/04/17 06:07:39;;;;;;;60.53;23.02;;;7.00;99.90;;;;;;5055870;28;20025;-78
2022/04/17 06:10:07;;;;;;;49.40;22.05;;;7.00;99.90;;;;;;5055982;28;20049;-77
2022/04/17 06:12:33;;;;;;;46.88;21.30;;;7.10;99.90;;;;;;5056017;28;20025;-78
2022/04/17 06:14:59;;;;;;;48.80;22.48;;;7.10;99.90;;;;;;5054967;28;20449;-77
2022/04/17 06:17:25;;;;;;;52.97;22.80;;;7.20;99.90;;;;;;5054612;28;20025;-79
2022/04/17 06:19:50;;;;;;;51.63;22.48;;;7.20;99.90;;;;;;5057654;28;20033;-79
2022/04/17 06:22:17;;;;;;;40.78;20.17;;;7.30;99.90;;;;;;5059015;28;20052;-79
2022/04/17 06:24:43;;;;;;;40.40;19.50;;;7.40;99.90;;;;;;5059104;28;20035;-77
2022/04/17 06:27:09;;;;;;;40.38;19.63;;;7.50;99.90;;;;;;5059035;28;20018;-77
2022/04/17 06:29:35;;;;;;;39.60;19.60;;;7.60;99.90;;;;;;5058648;28;20045;-78
2022/04/17 06:32:00;;;;;;;46.78;19.92;;;7.70;99.90;;;;;;5057228;28;20021;-79
2022/04/17 06:34:26;;;;;;;39.13;18.90;;;7.80;99.90;;;;;;5057380;28;20033;-78
2022/04/17 06:36:51;;;;;;;36.20;18.45;;;7.80;99.90;;;;;;5054974;28;20542;-79
2022/04/17 06:39:17;;;;;;;36.67;17.52;;;7.90;99.90;;;;;;5055285;28;20025;-77
2022/04/17 06:41:44;;;;;;;34.50;17.02;;;8.00;99.90;;;;;;5061656;28;20478;-79
2022/04/17 06:44:11;;;;;;;39.30;17.45;;;8.10;99.90;;;;;;5056545;28;20017;-78
2022/04/17 06:46:38;;;;;;;36.13;16.42;;;8.20;99.90;;;;;;5055981;28;20390;-78
2022/04/17 06:49:03;;;;;;;34.15;15.98;;;8.30;99.90;;;;;;5056151;28;20017;-77
2022/04/17 06:51:29;;;;;;;33.53;16.50;;;8.40;99.90;;;;;;5055441;28;20032;-77
2022/04/17 06:53:54;;;;;;;32.42;15.45;;;8.40;99.90;;;;;;5055103;28;20032;-77
2022/04/17 06:56:20;;;;;;;29.80;14.15;;;8.60;99.90;;;;;;5059597;28;20028;-76
2022/04/17 06:58:46;;;;;;;32.55;14.35;;;8.70;99.90;;;;;;5058734;28;20235;-77
2022/04/17 07:01:14;;;;;;;28.95;13.05;;;8.90;99.90;;;;;;5054840;28;20474;-76
2022/04/17 07:03:43;;;;;;;33.45;14.70;;;9.00;99.90;;;;;;5056045;28;20029;-75
2022/04/17 07:06:08;;;;;;;25.92;12.70;;;9.10;99.90;;;;;;5052487;28;20492;-76
2022/04/17 07:08:34;;;;;;;27.50;12.00;;;9.20;99.90;;;;;;5054058;28;20104;-77
2022/04/17 07:10:59;;;;;;;26.08;11.25;;;9.30;99.90;;;;;;5053805;28;20024;-76
2022/04/17 07:13:26;;;;;;;22.70;10.57;;;9.40;99.90;;;;;;5053756;28;20090;-75
2022/04/17 07:15:52;;;;;;;21.98;10.43;;;9.50;99.90;;;;;;5053630;28;20488;-77
2022/04/17 07:18:17;;;;;;;19.42;8.93;;;9.60;99.90;;;;;;5073229;22;20045;-77
2022/04/17 07:20:43;;;;;;;26.15;10.32;;;9.70;99.90;;;;;;5034321;28;20040;-76
2022/04/17 07:23:09;;;;;;;20.60;8.55;;;9.90;99.90;;;;;;5033763;28;20025;-76
2022/04/17 07:25:35;;;;;;;21.15;8.45;;;9.90;99.90;;;;;;5032581;28;20109;-75
2022/04/17 07:28:01;;;;;;;21.15;8.20;;;9.90;99.90;;;;;;5033327;28;20021;-76
2022/04/17 07:30:30;;;;;;;19.75;8.20;;;10.10;99.90;;;;;;5034023;28;20060;-77
2022/04/17 07:32:58;;;;;;;19.42;8.35;;;10.20;99.90;;;;;;5036541;28;20052;-76
2022/04/17 07:35:25;;;;;;;17.23;7.70;;;10.20;99.60;;;;;;5035660;28;20029;-75
2022/04/17 07:37:55;;;;;;;19.45;7.78;;;10.30;98.10;;;;;;5035455;28;20035;-79
2022/04/17 07:40:25;;;;;;;18.98;7.80;;;10.30;97.80;;;;;;5049038;28;20044;-75
2022/04/17 07:42:52;;;;;;;18.13;8.30;;;10.40;97.20;;;;;;5054215;28;20029;-76
2022/04/17 07:45:19;;;;;;;13.55;7.55;;;10.50;97.20;;;;;;5051525;28;20041;-75
2022/04/17 07:47:46;;;;;;;22.60;8.70;;;10.60;97.00;;;;;;5049106;28;20010;-74
2022/04/17 07:50:14;;;;;;;15.73;7.60;;;10.80;96.20;;;;;;5036416;28;20403;-75
2022/04/17 07:52:41;;;;;;;13.40;6.25;;;10.80;96.00;;;;;;5042744;28;20022;-75
2022/04/17 07:55:08;;;;;;;15.05;6.22;;;10.90;94.70;;;;;;5048835;28;20036;-76
2022/04/17 08:00:21;;;;;;;18.15;7.20;;;11.10;93.50;;;;;;5051451;28;20060;-75
2022/04/17 08:02:53;;;;;;;19.08;7.13;;;11.20;93.00;;;;;;5044085;28;20025;-75
2022/04/17 08:05:23;;;;;;;12.75;6.55;;;11.30;93.00;;;;;;5033828;28;20466;-75
2022/04/17 08:07:51;;;;;;;17.63;7.22;;;11.30;90.70;;;;;;5033547;28;20079;-75
2022/04/17 08:10:17;;;;;;;13.45;6.13;;;11.30;90.90;;;;;;5033101;28;20120;-75
2022/04/17 08:12:42;;;;;;;12.55;5.28;;;11.40;89.00;;;;;;5033013;28;20025;-75
2022/04/17 08:15:08;;;;;;;9.00;5.07;;;11.40;83.30;;;;;;5032621;28;20030;-75
2022/04/17 08:17:34;;;;;;;10.35;5.25;;;11.40;82.60;;;;;;5037359;28;20022;-76
2022/04/17 08:20:03;;;;;;;12.40;5.55;;;11.50;79.90;;;;;;5033976;28;20144;-76
2022/04/17 08:22:28;;;;;;;13.18;6.32;;;11.40;81.70;;;;;;5032525;28;20089;-75
2022/04/17 08:24:54;;;;;;;15.32;5.57;;;11.40;81.00;;;;;;5031195;28;20033;-75
2022/04/17 08:27:19;;;;;;;14.63;7.10;;;11.40;79.40;;;;;;5032276;28;20095;-75
2022/04/17 08:29:45;;;;;;;11.68;5.75;;;11.50;79.00;;;;;;5032670;28;20516;-75
2022/04/17 08:32:10;;;;;;;15.48;6.05;;;11.50;79.00;;;;;;5032190;28;20030;-76
2022/04/17 08:34:36;;;;;;;13.45;5.72;;;11.60;78.70;;;;;;5031929;28;20033;-74
2022/04/17 08:37:02;;;;;;;11.60;5.80;;;11.70;75.60;;;;;;5031816;28;20036;-76
2022/04/17 08:39:27;;;;;;;13.02;5.22;;;11.70;75.80;;;;;;5030110;28;20064;-75
2022/04/17 08:41:54;;;;;;;12.52;5.13;;;11.80;73.60;;;;;;5031695;28;20022;-75
2022/04/17 08:44:22;;;;;;;13.18;4.78;;;11.90;73.60;;;;;;5031232;28;20341;-78
2022/04/17 08:46:48;;;;;;;11.20;4.50;;;11.90;73.00;;;;;;5031019;28;20056;-74
2022/04/17 08:49:14;;;;;;;17.50;4.90;;;12.00;71.80;;;;;;5031395;28;20356;-75
2022/04/17 08:51:40;;;;;;;11.35;4.25;;;12.00;71.70;;;;;;5032174;28;20029;-75
2022/04/17 08:54:06;;;;;;;9.07;4.15;;;12.00;71.80;;;;;;5032116;28;20151;-76
2022/04/17 08:56:34;;;;;;;9.18;3.97;;;12.20;70.60;;;;;;5031691;28;20501;-74
2022/04/17 08:59:00;;;;;;;11.38;3.75;;;12.30;68.60;;;;;;5033732;28;20037;-74
2022/04/17 09:01:26;;;;;;;11.43;3.97;;;12.30;68.20;;;;;;5034377;28;20562;-77
2022/04/17 09:03:51;;;;;;;6.28;3.13;;;12.40;67.40;;;;;;5032989;28;20064;-75
2022/04/17 09:06:21;;;;;;;9.55;4.57;;;12.40;67.70;;;;;;5031524;28;20029;-75
2022/04/17 09:09:00;;;;;;;9.75;4.00;;;12.50;65.80;;;;;;5032208;28;20036;-76
2022/04/17 09:11:28;;;;;;;11.60;3.25;;;12.60;66.40;;;;;;5032566;28;20048;-74
2022/04/17 09:13:55;;;;;;;10.13;3.58;;;12.70;64.10;;;;;;5031307;28;20022;-75
2022/04/17 09:16:30;;;;;;;22.60;6.45;;;12.80;64.50;;;;;;5031770;28;20035;-74
2022/04/17 09:18:57;;;;;;;9.45;3.78;;;13.00;63.80;;;;;;5031759;28;20029;-75
2022/04/17 09:21:29;;;;;;;5.40;2.97;;;13.30;63.50;;;;;;5030442;28;20021;-75
2022/04/17 09:24:16;;;;;;;9.18;3.25;;;13.50;60.70;;;;;;5031830;28;20112;-74
2022/04/17 09:26:52;;;;;;;9.10;3.90;;;13.80;60.90;;;;;;5033189;28;20053;-76
2022/04/17 09:29:23;;;;;;;6.15;3.35;;;14.10;61.20;;;;;;5037117;28;20041;-74
2022/04/17 09:31:57;;;;;;;9.18;3.22;;;14.40;59.50;;;;;;5036265;28;20025;-75
2022/04/17 09:34:23;;;;;;;9.48;3.67;;;14.60;59.00;;;;;;5036077;28;20041;-74
2022/04/17 09:36:59;;;;;;;8.77;3.25;;;14.60;59.50;;;;;;5035863;28;20070;-74
2022/04/17 09:39:35;;;;;;;9.32;3.85;;;14.50;56.20;;;;;;5035573;28;20056;-74
2022/04/17 09:42:02;;;;;;;11.15;4.30;;;14.30;56.80;;;;;;5038399;28;20026;-73
2022/04/17 09:44:47;;;;;;;12.40;4.65;;;14.40;56.60;;;;;;5038860;28;20101;-74
2022/04/17 09:47:25;;;;;;;7.00;3.83;;;14.50;57.60;;;;;;5036633;28;20467;-76
2022/04/17 09:49:58;;;;;;;6.93;3.40;;;14.70;56.80;;;;;;5036661;28;20113;-77
2022/04/17 09:52:43;;;;;;;7.20;3.63;;;14.80;55.80;;;;;;5035026;28;20025;-76
2022/04/17 09:55:09;;;;;;;9.35;4.10;;;14.80;55.30;;;;;;5035219;28;20574;-76
2022/04/17 09:57:40;;;;;;;9.68;4.05;;;14.80;56.10;;;;;;5035000;28;20061;-76
2022/04/17 10:00:14;;;;;;;7.50;3.70;;;14.90;56.00;;;;;;5034938;28;20041;-77
2022/04/17 10:02:41;;;;;;;11.48;3.67;;;15.00;54.40;;;;;;5034517;28;20028;-76
2022/04/17 10:05:08;;;;;;;6.97;3.45;;;15.10;54.50;;;;;;5035451;28;20475;-76
2022/04/17 10:07:36;;;;;;;7.25;3.95;;;15.10;55.20;;;;;;5037510;28;20049;-76
2022/04/17 10:10:03;;;;;;;9.32;3.58;;;15.10;55.10;;;;;;5037274;28;20112;-76
2022/04/17 10:12:29;;;;;;;12.57;4.47;;;15.20;55.60;;;;;;5040065;28;20021;-76
2022/04/17 10:14:55;;;;;;;10.50;3.97;;;15.10;54.50;;;;;;5039274;28;20032;-76
2022/04/17 10:17:22;;;;;;;6.38;3.35;;;15.30;55.00;;;;;;5037217;28;20041;-78
2022/04/17 10:19:49;;;;;;;8.98;3.38;;;15.40;54.90;;;;;;5034571;28;20045;-76
2022/04/17 10:22:18;;;;;;;8.20;3.28;;;15.50;54.60;;;;;;5035896;28;20075;-76
2022/04/17 10:24:54;;;;;;;7.35;3.13;;;15.60;54.10;;;;;;5036362;28;20042;-74
2022/04/17 10:27:26;;;;;;;6.05;2.92;;;15.60;54.20;;;;;;5047370;28;20031;-75
2022/04/17 10:30:10;;;;;;;7.30;3.15;;;15.70;54.30;;;;;;5038749;28;20026;-74
2022/04/17 10:32:57;;;;;;;7.40;3.17;;;15.70;53.60;;;;;;5041217;28;20022;-75
2022/04/17 10:35:35;;;;;;;6.45;2.67;;;15.80;52.80;;;;;;5044118;28;20117;-76
2022/04/17 10:38:26;;;;;;;9.88;3.65;;;15.90;52.00;;;;;;5034538;28;20085;-77
2022/04/17 10:41:03;;;;;;;6.88;3.05;;;15.90;52.90;;;;;;5034468;28;20029;-76
2022/04/17 10:43:53;;;;;;;8.65;3.13;;;15.90;52.20;;;;;;5034450;28;20025;-76
2022/04/17 10:46:20;;;;;;;8.25;3.10;;;16.00;52.50;;;;;;5034115;28;20405;-78
2022/04/17 10:48:49;;;;;;;6.38;3.20;;;15.90;53.00;;;;;;5034470;28;20056;-75
2022/04/17 10:51:16;;;;;;;9.27;3.17;;;15.90;53.70;;;;;;5033999;28;20090;-76
2022/04/17 10:54:04;;;;;;;7.95;3.28;;;16.00;52.50;;;;;;5033900;28;20068;-76
2022/04/17 10:56:35;;;;;;;6.60;3.22;;;16.10;52.80;;;;;;5033842;28;20018;-76
2022/04/17 10:59:05;;;;;;;7.20;2.88;;;16.30;52.50;;;;;;5032690;28;20101;-76
2022/04/17 11:01:43;;;;;;;5.18;2.70;;;16.40;51.20;;;;;;5033732;28;20028;-75
2022/04/17 11:04:41;;;;;;;5.18;2.60;;;16.40;49.30;;;;;;5033905;28;20100;-76
2022/04/17 11:07:06;;;;;;;5.82;2.92;;;16.40;49.90;;;;;;5019600;28;20402;-75
2022/04/17 11:09:33;;;;;;;8.27;3.00;;;16.40;48.80;;;;;;5034382;28;20022;-77
2022/04/17 11:12:17;;;;;;;5.85;2.90;;;16.50;49.80;;;;;;5037607;28;20033;-77
2022/04/17 11:15:12;;;;;;;6.28;2.38;;;16.60;49.00;;;;;;5040583;28;20037;-75
2022/04/17 11:17:39;;;;;;;9.85;4.20;;;16.70;48.40;;;;;;5032950;28;20041;-76
2022/04/17 11:20:07;;;;;;;6.78;2.10;;;16.70;48.60;;;;;;5040115;28;20038;-75
2022/04/17 11:22:37;;;;;;;4.70;2.20;;;16.70;46.70;;;;;;5035676;28;20017;-75
2022/04/17 11:25:06;;;;;;;4.85;2.00;;;16.70;46.80;;;;;;5032603;28;20028;-75
2022/04/17 11:27:31;;;;;;;5.30;1.92;;;16.80;46.80;;;;;;5033761;28;20025;-76
2022/04/17 11:29:58;;;;;;;6.65;2.35;;;16.90;46.00;;;;;;5032986;28;20610;-75
2022/04/17 11:32:25;;;;;;;5.28;2.05;;;16.90;45.10;;;;;;5032991;28;20029;-75
2022/04/17 11:34:54;;;;;;;8.27;2.40;;;16.90;45.50;;;;;;5033628;28;20025;-76
2022/04/17 11:37:22;;;;;;;4.93;2.47;;;17.10;45.10;;;;;;5034272;28;20029;-76
2022/04/17 11:39:49;;;;;;;5.68;2.28;;;17.30;45.60;;;;;;5034677;28;20557;-76
2022/04/17 11:42:15;;;;;;;6.13;2.30;;;17.60;46.60;;;;;;5034829;28;20044;-77
2022/04/17 11:44:42;;;;;;;5.15;2.40;;;17.80;46.20;;;;;;5034130;28;20421;-76
2022/04/17 11:47:13;;;;;;;5.03;2.40;;;18.00;45.20;;;;;;5032252;28;20033;-78
2022/04/17 11:49:42;;;;;;;3.67;1.92;;;18.30;45.20;;;;;;5032871;28;20103;-77
2022/04/17 11:52:15;;;;;;;5.13;2.40;;;18.50;43.40;;;;;;5033102;28;20360;-76
2022/04/17 11:54:42;;;;;;;5.55;2.00;;;18.90;43.70;;;;;;5033685;28;20030;-76
2022/04/17 11:57:08;;;;;;;4.28;2.00;;;;;;;;;;5033519;28;20025;-76
2022/04/17 11:59:46;;;;;;;6.32;2.55;;;;;;;;;;5033503;28;20061;-75
2022/04/17 12:02:16;;;;;;;17.65;8.20;;;;;;;;;;5032849;28;20025;-77
2022/04/17 12:04:43;;;;;;;5.72;1.98;;;;;;;;;;5033044;28;20037;-76
2022/04/17 12:07:10;;;;;;;5.18;2.05;;;;;;;;;;5033055;28;20036;-76
2022/04/17 12:09:36;;;;;;;4.68;2.17;;;;;;;;;;5033582;28;20034;-78
2022/04/17 12:12:02;;;;;;;4.88;2.20;;;;;;;;;;5032834;28;20076;-76
2022/04/17 12:14:31;;;;;;;6.40;2.15;;;;;;;;;;5032482;28;20386;-78
2022/04/17 12:16:57;;;;;;;8.65;2.35;;;;;;;;;;5032155;28;20120;-78
2022/04/17 12:19:25;;;;;;;5.13;2.30;;;;;;;;;;5031693;28;20546;-76
2022/04/17 12:21:51;;;;;;;6.53;1.85;;;;;;;;;;5033781;28;20116;-77
2022/04/17 12:24:17;;;;;;;4.10;1.50;;;;;;;;;;5032723;28;20022;-77
2022/04/17 12:26:43;;;;;;;3.53;1.55;;;;;;;;;;5031980;28;20029;-74
2022/04/17 12:29:09;;;;;;;2.80;1.52;;;;;;;;;;5032100;28;20065;-75
2022/04/17 12:31:35;;;;;;;2.90;1.52;;;;;;;;;;5032356;28;20026;-75
2022/04/17 12:34:12;;;;;;;6.70;2.00;;;;;;;;;;5030506;28;20457;-75
2022/04/17 12:36:42;;;;;;;3.45;1.60;;;;;;;;;;5031508;28;20017;-74
2022/04/17 12:39:08;;;;;;;6.47;1.70;;;;;;;;;;5030442;28;20017;-75
2022/04/17 12:41:42;;;;;;;2.25;1.40;;;;;;;;;;5030561;28;20510;-75
2022/04/17 12:44:08;;;;;;;4.68;1.55;;;;;;;;;;5031885;28;20013;-76
2022/04/17 12:46:35;;;;;;;4.80;1.42;;;;;;;;;;5031759;28;20028;-76
2022/04/17 12:49:01;;;;;;;2.60;1.38;;;;;;;;;;5031685;28;20440;-75
2022/04/17 12:51:27;;;;;;;4.53;2.17;;;;;;;;;;5031923;28;20017;-76
2022/04/17 12:53:53;;;;;;;4.55;1.55;;;;;;;;;;5033963;28;20033;-77
2022/04/17 12:56:20;;;;;;;3.05;1.45;;;;;;;;;;5036403;28;20022;-76
2022/04/17 12:58:47;;;;;;;2.42;1.30;;;;;;;;;;5032743;28;20501;-78
2022/04/17 13:01:21;;;;;;;2.33;1.63;;;;;;;;;;5030892;28;20030;-77
2022/04/17 13:03:48;;;;;;;3.90;1.55;;;;;;;;;;5032422;28;20029;-76
2022/04/17 13:06:23;;;;;;;3.20;1.60;;;;;;;;;;5031180;28;20033;-75
2022/04/17 13:09:03;;;;;;;2.55;1.40;;;;;;;;;;5031842;28;20036;-78
2022/04/17 13:11:36;;;;;;;4.45;1.70;;;;;;;;;;5033530;28;20053;-76
2022/04/17 13:14:02;;;;;;;2.10;1.13;;;;;;;;;;5032674;28;20025;-76
2022/04/17 13:16:29;;;;;;;3.83;1.50;;;;;;;;;;5032437;28;20055;-77
2022/04/17 13:18:55;;;;;;;2.72;1.58;;;;;;;;;;5032332;28;20026;-77
2022/04/17 13:21:21;;;;;;;5.35;1.52;;;;;;;;;;5031984;28;20025;-76
2022/04/17 13:23:47;;;;;;;3.70;1.90;;;;;;;;;;5031949;28;20026;-77